createdAt,value
2018-07-05T00:01:07.516Z,67.80
2018-07-05T00:03:54.444Z,70.30
2018-07-05T00:06:41.387Z,69.30
2018-07-05T00:09:28.185Z,67.80
2018-07-05T00:12:14.947Z,67.60
2018-07-05T00:15:01.753Z,67.70
2018-07-05T00:17:48.338Z,68.30
2018-07-05T00:20:35.236Z,68.90
2018-07-05T00:23:22.065Z,68.20
2018-07-05T00:26:08.824Z,68.80
2018-07-05T00:28:55.654Z,69.00
2018-07-05T00:34:45.694Z,68.20
2018-07-05T00:37:32.551Z,69.10
2018-07-05T00:40:19.414Z,71.60
2018-07-05T00:43:06.117Z,72.80
2018-07-05T00:45:53.632Z,72.10
2018-07-05T00:48:40.520Z,72.10
2018-07-05T00:51:27.473Z,71.70
2018-07-05T00:54:16.769Z,70.10
2018-07-05T00:57:03.477Z,69.70
2018-07-05T00:59:50.296Z,69.00
2018-07-05T01:02:37.308Z,69.00
2018-07-05T01:05:24.017Z,70.20
2018-07-05T01:10:51.551Z,69.00
2018-07-05T01:13:38.271Z,68.70
2018-07-05T01:16:25.055Z,68.90
2018-07-05T01:19:11.657Z,68.60
2018-07-05T01:21:58.429Z,68.60
2018-07-05T01:24:45.206Z,69.00
2018-07-05T01:30:12.706Z,69.20
2018-07-05T01:32:59.698Z,68.90
2018-07-05T01:35:46.441Z,69.70
2018-07-05T01:38:33.577Z,69.50
2018-07-05T01:41:20.597Z,69.10
2018-07-05T01:44:07.609Z,69.70
2018-07-05T01:46:54.490Z,71.50
2018-07-05T01:49:41.455Z,70.90
2018-07-05T01:52:28.263Z,70.40
2018-07-05T01:55:15.225Z,70.60
2018-07-05T01:58:02.217Z,70.50
2018-07-05T02:00:49.033Z,70.30
2018-07-05T02:03:35.859Z,70.50
2018-07-05T02:06:22.668Z,70.10
2018-07-05T02:09:09.846Z,70.10
2018-07-05T02:14:37.686Z,70.90
2018-07-05T02:17:24.397Z,70.20
2018-07-05T02:20:11.916Z,71.30
2018-07-05T02:22:58.859Z,73.60
2018-07-05T02:25:47.491Z,73.00
2018-07-05T02:28:34.193Z,71.90
2018-07-05T02:34:13.512Z,72.60
2018-07-05T02:37:00.213Z,72.60
2018-07-05T02:42:44.442Z,71.90
2018-07-05T02:45:31.340Z,71.50
2018-07-05T02:48:18.106Z,72.50
2018-07-05T02:51:04.982Z,72.40
2018-07-05T02:53:52.079Z,72.20
2018-07-05T02:56:39.097Z,71.80
2018-07-05T02:59:25.795Z,71.00
2018-07-05T03:02:12.571Z,71.20
2018-07-05T03:04:59.496Z,71.80
2018-07-05T03:07:46.287Z,72.70
2018-07-05T03:10:32.995Z,72.50
2018-07-05T03:13:19.880Z,71.80
2018-07-05T03:16:06.542Z,72.00
2018-07-05T03:18:53.544Z,74.20
2018-07-05T03:24:21.637Z,74.80
2018-07-05T03:27:08.377Z,74.40
2018-07-05T03:29:55.294Z,74.80
2018-07-05T03:32:43.144Z,74.20
2018-07-05T03:38:10.348Z,74.30
2018-07-05T03:40:57.796Z,74.30
2018-07-05T03:43:45.177Z,74.50
2018-07-05T03:46:32.560Z,74.50
2018-07-05T03:49:19.983Z,74.40
2018-07-05T03:52:06.597Z,74.30
2018-07-05T03:54:53.445Z,73.90
2018-07-05T03:57:41.244Z,74.00
2018-07-05T04:00:27.900Z,74.00
2018-07-05T04:03:14.799Z,75.00
2018-07-05T04:06:01.658Z,75.00
2018-07-05T04:08:48.520Z,74.40
2018-07-05T04:11:35.187Z,74.10
2018-07-05T04:14:21.885Z,74.10
2018-07-05T04:17:08.598Z,73.30
2018-07-05T04:19:55.569Z,71.50
2018-07-05T04:22:42.364Z,71.80
2018-07-05T04:25:29.228Z,70.70
2018-07-05T04:28:16.379Z,71.60
2018-07-05T04:31:04.744Z,70.30
2018-07-05T04:33:51.579Z,69.80
2018-07-05T04:36:38.837Z,69.30
2018-07-05T04:39:25.662Z,69.10
2018-07-05T04:42:12.545Z,68.40
2018-07-05T04:47:51.600Z,66.60
2018-07-05T04:50:38.338Z,66.20
2018-07-05T04:53:25.598Z,66.50
2018-07-05T04:56:12.269Z,66.10
2018-07-05T04:59:03.624Z,62.80
2018-07-05T05:01:53.052Z,63.10
2018-07-05T05:04:40.578Z,63.30
2018-07-05T05:07:27.264Z,65.20
2018-07-05T05:10:14.107Z,62.50
2018-07-05T05:13:00.984Z,63.50
2018-07-05T05:15:47.685Z,62.20
2018-07-05T05:18:35.479Z,61.20
2018-07-05T05:21:22.324Z,59.90
2018-07-05T05:24:09.692Z,60.40
2018-07-05T05:29:48.055Z,59.90
2018-07-05T05:35:15.710Z,60.80
2018-07-05T05:40:43.090Z,56.70
2018-07-05T05:43:29.887Z,57.30
2018-07-05T05:49:08.590Z,57.80
2018-07-05T05:51:55.699Z,57.40
2018-07-05T05:54:42.451Z,57.70
2018-07-05T05:57:29.295Z,57.60
2018-07-05T06:00:22.871Z,56.90
2018-07-05T06:03:09.817Z,56.00
2018-07-05T06:08:49.381Z,56.00
2018-07-05T06:11:37.268Z,56.40
2018-07-05T06:14:24.235Z,56.10
2018-07-05T06:17:11.093Z,56.90
2018-07-05T06:19:57.895Z,56.30
2018-07-05T06:22:44.894Z,56.50
2018-07-05T06:25:31.753Z,56.60
2018-07-05T06:28:18.348Z,57.30
2018-07-05T06:33:57.463Z,55.10
2018-07-05T06:36:44.147Z,54.60
2018-07-05T06:39:30.835Z,54.40
2018-07-05T06:42:17.545Z,54.80
2018-07-05T06:45:04.275Z,55.80
2018-07-05T06:47:50.873Z,56.50
2018-07-05T06:50:37.484Z,55.60
2018-07-05T06:53:24.139Z,55.00
2018-07-05T06:56:11.021Z,54.10
2018-07-05T06:58:57.892Z,54.80
2018-07-05T07:01:44.830Z,54.30
2018-07-05T07:04:31.570Z,53.90
2018-07-05T07:07:18.468Z,55.40
2018-07-05T07:10:05.176Z,54.80
2018-07-05T07:12:52.036Z,54.80
2018-07-05T07:15:38.917Z,55.10
2018-07-05T07:18:25.936Z,54.30
2018-07-05T07:21:12.617Z,54.70
2018-07-05T07:23:59.432Z,54.40
2018-07-05T07:26:46.134Z,53.50
2018-07-05T07:29:33.010Z,53.40
2018-07-05T07:32:19.837Z,52.90
2018-07-05T07:35:06.910Z,51.40
2018-07-05T07:37:53.768Z,51.30
2018-07-05T07:40:40.755Z,51.20
2018-07-05T07:43:15.299Z,50.40
2018-07-05T07:45:43.618Z,50.00
2018-07-05T07:48:12.125Z,50.80
2018-07-05T07:50:41.118Z,51.30
2018-07-05T07:53:09.464Z,48.80
2018-07-05T07:55:37.820Z,49.40
2018-07-05T07:58:06.185Z,52.10
2018-07-05T08:00:34.807Z,50.10
2018-07-05T08:03:03.231Z,51.60
2018-07-05T08:05:31.666Z,49.30
2018-07-05T08:08:00.006Z,49.90
2018-07-05T08:10:28.345Z,47.80
2018-07-05T08:12:56.714Z,49.10
2018-07-05T08:15:30.631Z,50.00
2018-07-05T08:17:58.897Z,48.90
2018-07-05T08:20:27.213Z,52.00
2018-07-05T08:22:56.233Z,51.10
2018-07-05T08:25:24.558Z,50.50
2018-07-05T08:27:52.953Z,50.50
2018-07-05T08:30:21.353Z,50.10
2018-07-05T08:32:49.814Z,50.20
2018-07-05T08:35:18.343Z,51.40
2018-07-05T08:40:15.206Z,49.40
2018-07-05T08:45:12.970Z,50.80
2018-07-05T08:47:41.278Z,51.20
2018-07-05T08:52:38.154Z,52.80
2018-07-05T08:55:06.554Z,51.60
2018-07-05T08:57:34.922Z,51.60
2018-07-05T09:00:03.366Z,49.60
2018-07-05T09:02:31.694Z,49.90
2018-07-05T09:05:00.092Z,50.10
2018-07-05T09:07:28.463Z,49.70
2018-07-05T09:09:56.811Z,50.00
2018-07-05T09:12:25.227Z,50.30
2018-07-05T09:14:53.517Z,48.90
2018-07-05T09:17:21.984Z,49.50
2018-07-05T09:19:50.286Z,48.90
2018-07-05T09:24:47.127Z,50.00
2018-07-05T09:27:15.508Z,48.10
2018-07-05T09:29:43.776Z,48.10
2018-07-05T09:32:12.309Z,49.10
2018-07-05T09:34:40.750Z,48.90
2018-07-05T09:37:09.083Z,47.90
2018-07-05T09:39:37.364Z,50.20
2018-07-05T09:42:05.647Z,50.50
2018-07-05T09:44:34.108Z,47.50
2018-07-05T09:49:31.620Z,49.00
2018-07-05T09:52:00.095Z,51.40
2018-07-05T09:54:28.431Z,49.10
2018-07-05T09:57:00.505Z,48.30
2018-07-05T09:59:28.969Z,48.10
2018-07-05T10:01:57.242Z,47.70
2018-07-05T10:04:25.745Z,46.60
2018-07-05T10:06:54.050Z,46.80
2018-07-05T10:09:22.628Z,47.20
2018-07-05T10:14:25.051Z,46.90
2018-07-05T10:16:53.408Z,47.20
2018-07-05T10:19:21.640Z,48.20
2018-07-05T10:21:50.020Z,48.80
2018-07-05T10:24:18.493Z,47.30
2018-07-05T10:26:46.862Z,47.50
2018-07-05T10:29:27.626Z,47.20
2018-07-05T10:32:14.423Z,47.40
2018-07-05T10:34:49.025Z,48.40
2018-07-05T10:37:23.829Z,47.20
2018-07-05T10:40:05.536Z,47.80
2018-07-05T10:42:52.229Z,45.80
2018-07-05T10:48:31.024Z,44.50
2018-07-05T10:51:18.303Z,46.10
2018-07-05T10:54:05.247Z,45.20
2018-07-05T10:56:52.087Z,45.70
2018-07-05T10:59:39.293Z,44.90
2018-07-05T11:02:26.215Z,46.10
2018-07-05T11:05:13.159Z,43.70
2018-07-05T11:08:00.054Z,44.50
2018-07-05T11:10:47.657Z,48.70
2018-07-05T11:13:34.485Z,48.50
2018-07-05T11:16:22.726Z,44.60
2018-07-05T11:19:09.640Z,45.30
2018-07-05T11:21:56.501Z,44.60
2018-07-05T11:24:43.592Z,44.80
2018-07-05T11:27:30.376Z,45.40
2018-07-05T11:30:17.231Z,44.20
2018-07-05T11:33:04.590Z,43.10
2018-07-05T11:38:32.635Z,43.30
2018-07-05T11:41:19.467Z,43.20
2018-07-05T11:44:06.515Z,44.10
2018-07-05T11:46:53.231Z,43.70
2018-07-05T11:49:40.011Z,43.70
2018-07-05T11:52:27.668Z,46.10
2018-07-05T11:55:14.689Z,43.20
2018-07-05T11:58:01.889Z,43.50
2018-07-05T12:00:48.638Z,44.10
2018-07-05T12:03:35.374Z,45.50
2018-07-05T12:06:22.347Z,46.10
2018-07-05T12:11:51.422Z,45.40
2018-07-05T12:14:38.437Z,47.40
2018-07-05T12:17:25.351Z,45.20
2018-07-05T12:20:12.252Z,42.80
2018-07-05T12:22:59.069Z,44.50
2018-07-05T12:25:46.104Z,43.90
2018-07-05T12:28:32.920Z,43.60
2018-07-05T12:31:20.089Z,42.20
2018-07-05T12:34:07.059Z,45.50
2018-07-05T12:36:54.013Z,42.90
2018-07-05T12:39:40.902Z,43.10
2018-07-05T12:42:27.994Z,46.60
2018-07-05T12:45:14.787Z,47.40
2018-07-05T12:48:01.968Z,46.30
2018-07-05T12:50:48.828Z,43.90
2018-07-05T12:53:35.598Z,44.30
2018-07-05T12:59:15.041Z,42.00
2018-07-05T13:02:01.892Z,41.70
2018-07-05T13:04:48.721Z,40.80
2018-07-05T13:07:35.609Z,42.80
2018-07-05T13:10:26.628Z,42.30
2018-07-05T13:13:13.411Z,41.90
2018-07-05T13:16:00.392Z,44.80
2018-07-05T13:18:47.400Z,41.40
2018-07-05T13:21:34.262Z,44.30
2018-07-05T13:24:21.301Z,43.20
2018-07-05T13:27:08.189Z,42.70
2018-07-05T13:29:55.308Z,42.80
2018-07-05T13:32:42.118Z,44.60
2018-07-05T13:35:29.329Z,44.00
2018-07-05T13:38:16.405Z,43.80
2018-07-05T13:41:03.161Z,44.70
2018-07-05T13:43:49.878Z,44.60
2018-07-05T13:46:36.527Z,42.20
2018-07-05T13:49:23.433Z,43.60
2018-07-05T13:57:43.059Z,43.00
2018-07-05T14:00:32.032Z,40.80
2018-07-05T14:03:18.929Z,41.50
2018-07-05T14:06:05.647Z,41.80
2018-07-05T14:08:52.406Z,43.10
2018-07-05T14:14:20.984Z,42.70
2018-07-05T14:17:07.726Z,43.30
2018-07-05T14:19:54.708Z,43.60
2018-07-05T14:28:03.134Z,45.70
2018-07-05T14:30:50.159Z,44.40
2018-07-05T14:33:37.248Z,45.10
2018-07-05T14:36:24.008Z,45.70
2018-07-05T14:39:10.908Z,45.60
2018-07-05T14:42:01.440Z,45.70
2018-07-05T14:44:48.304Z,45.90
2018-07-05T14:47:35.084Z,46.90
2018-07-05T14:50:21.969Z,47.20
2018-07-05T14:53:08.924Z,45.60
2018-07-05T14:56:06.054Z,45.50
2018-07-05T14:58:52.952Z,45.50
2018-07-05T15:01:39.884Z,44.60
2018-07-05T15:04:26.747Z,44.10
2018-07-05T15:07:13.616Z,43.90
2018-07-05T15:10:00.566Z,43.40
2018-07-05T15:12:47.745Z,43.60
2018-07-05T15:15:34.762Z,44.90
2018-07-05T15:18:21.737Z,43.60
2018-07-05T15:21:08.521Z,44.10
2018-07-05T15:23:55.206Z,44.40
2018-07-05T15:26:45.962Z,44.80
2018-07-05T15:29:33.277Z,46.10
2018-07-05T15:38:04.808Z,48.20
2018-07-05T15:40:51.811Z,49.50
2018-07-05T15:49:11.404Z,52.50
2018-07-05T15:51:59.054Z,53.90
2018-07-05T15:54:45.869Z,55.10
2018-07-05T16:00:25.517Z,57.00
2018-07-05T16:03:12.301Z,57.50
2018-07-05T16:06:00.269Z,57.50
2018-07-05T16:08:47.163Z,57.50
2018-07-05T16:17:18.472Z,56.60
2018-07-05T16:20:05.264Z,57.50
2018-07-05T16:22:52.822Z,56.40
2018-07-05T16:25:39.599Z,56.50
2018-07-05T16:28:26.378Z,56.20
2018-07-05T16:31:13.635Z,59.90
2018-07-05T16:34:00.495Z,64.10
2018-07-05T16:36:49.275Z,65.90
2018-07-05T16:42:18.439Z,62.30
2018-07-05T16:45:05.252Z,62.70
2018-07-05T16:47:52.318Z,65.60
2018-07-05T16:50:39.156Z,66.90
2018-07-05T16:53:26.865Z,65.30
2018-07-05T16:56:14.105Z,66.30
2018-07-05T16:59:01.286Z,66.20
2018-07-05T17:01:48.038Z,70.60
2018-07-05T17:04:35.075Z,71.30
2018-07-05T17:07:21.939Z,71.40
2018-07-05T17:10:08.730Z,72.80
2018-07-05T17:12:55.593Z,72.50
2018-07-05T17:15:42.451Z,72.30
2018-07-05T17:18:30.292Z,72.30
2018-07-05T17:21:17.213Z,71.90
2018-07-05T17:24:04.109Z,70.60
2018-07-05T17:26:51.146Z,72.20
2018-07-05T17:29:37.918Z,72.20
2018-07-05T17:32:24.685Z,71.80
2018-07-05T17:35:11.642Z,72.60
2018-07-05T17:37:58.669Z,72.00
2018-07-05T17:40:46.051Z,69.70
2018-07-05T17:43:35.103Z,73.20
2018-07-05T17:46:21.851Z,74.00
2018-07-05T17:49:09.987Z,72.40
2018-07-05T17:51:57.136Z,75.40
2018-07-05T17:54:44.153Z,75.00
2018-07-05T17:57:30.973Z,75.10
2018-07-05T18:00:18.537Z,74.80
2018-07-05T18:05:47.132Z,75.40
2018-07-05T18:08:34.892Z,74.20
2018-07-05T18:11:21.633Z,73.20
2018-07-05T18:14:08.960Z,72.10
2018-07-05T18:16:55.982Z,72.50
2018-07-05T18:19:43.425Z,73.60
2018-07-05T18:22:30.428Z,73.70
2018-07-05T18:25:20.491Z,76.10
2018-07-05T18:28:09.504Z,74.90
2018-07-05T18:30:58.729Z,77.10
2018-07-05T18:33:45.589Z,75.60
2018-07-05T18:36:32.304Z,75.40
2018-07-05T18:39:20.116Z,73.20
2018-07-05T18:42:08.654Z,74.10
2018-07-05T18:45:01.707Z,76.70
2018-07-05T18:47:48.738Z,75.20
2018-07-05T18:50:35.500Z,74.50
2018-07-05T18:53:22.996Z,75.00
2018-07-05T18:56:12.699Z,74.10
2018-07-05T18:58:59.653Z,75.10
2018-07-05T19:01:46.302Z,74.90
2018-07-05T19:04:33.125Z,74.60
2018-07-05T19:07:19.986Z,75.50
2018-07-05T19:10:07.157Z,74.50
2018-07-05T19:12:54.852Z,74.90
2018-07-05T19:15:41.857Z,76.30
2018-07-05T19:18:29.540Z,75.00
2018-07-05T19:21:16.476Z,75.10
2018-07-05T19:24:04.164Z,75.20
2018-07-05T19:26:51.652Z,75.80
2018-07-05T19:29:38.236Z,76.10
2018-07-05T19:35:05.908Z,74.60
2018-07-05T19:37:52.739Z,75.00
2018-07-05T19:40:39.554Z,77.50
2018-07-05T19:43:27.085Z,74.60
2018-07-05T19:46:14.934Z,73.80
2018-07-05T19:49:02.704Z,72.80
2018-07-05T19:51:49.626Z,73.40
2018-07-05T19:54:37.098Z,74.70
2018-07-05T19:57:24.166Z,74.20
2018-07-05T20:00:11.912Z,74.40
2018-07-05T20:02:58.822Z,73.60
2018-07-05T20:05:45.871Z,75.40
2018-07-05T20:11:17.811Z,76.90
2018-07-05T20:14:05.414Z,76.20
2018-07-05T20:16:52.905Z,77.30
2018-07-05T20:19:39.659Z,78.30
2018-07-05T20:25:08.104Z,77.60
2018-07-05T20:27:55.704Z,77.50
2018-07-05T20:30:42.581Z,76.40
2018-07-05T20:33:29.569Z,77.00
2018-07-05T20:36:16.300Z,75.70
2018-07-05T20:39:03.063Z,76.40
2018-07-05T20:41:49.995Z,77.20
2018-07-05T20:44:36.668Z,78.00
2018-07-05T20:47:23.587Z,76.80
2018-07-05T20:50:10.374Z,77.10
2018-07-05T20:52:58.605Z,76.90
2018-07-05T20:55:45.523Z,76.70
2018-07-05T20:58:32.674Z,75.00
2018-07-05T21:01:20.340Z,76.10
2018-07-05T21:04:07.218Z,74.90
2018-07-05T21:06:54.019Z,75.10
2018-07-05T21:09:40.936Z,76.20
2018-07-05T21:12:28.191Z,76.10
2018-07-05T21:15:15.097Z,76.10
2018-07-05T21:18:01.906Z,76.20
2018-07-05T21:20:49.724Z,75.90
2018-07-05T21:23:36.808Z,76.20
2018-07-05T21:26:23.621Z,75.50
2018-07-05T21:29:14.136Z,75.40
2018-07-05T21:34:42.320Z,77.40
2018-07-05T21:37:29.241Z,77.50
2018-07-05T21:42:56.930Z,78.00
2018-07-05T21:45:43.961Z,78.20
2018-07-05T21:48:30.588Z,77.70
2018-07-05T21:54:13.283Z,76.60
2018-07-05T21:59:42.096Z,76.60
2018-07-05T22:02:30.589Z,76.50
2018-07-05T22:05:17.405Z,78.20
2018-07-05T22:08:04.154Z,77.80
2018-07-05T22:10:52.045Z,77.90
2018-07-05T22:13:38.831Z,78.30
2018-07-05T22:19:23.072Z,79.70
2018-07-05T22:25:02.373Z,80.50
2018-07-05T22:27:54.299Z,83.20
2018-07-05T22:35:44.803Z,81.20
2018-07-05T22:38:31.624Z,79.50
2018-07-05T22:41:19.323Z,80.30
2018-07-05T22:44:06.294Z,80.40
2018-07-05T22:49:47.194Z,81.30
2018-07-05T22:52:39.216Z,80.80
2018-07-05T22:55:32.093Z,80.80
2018-07-05T22:58:22.085Z,81.80
2018-07-05T23:01:09.040Z,80.60
2018-07-05T23:06:36.713Z,80.70
2018-07-05T23:09:23.573Z,78.70
2018-07-05T23:14:51.092Z,80.50
2018-07-05T23:17:38.019Z,79.80
2018-07-05T23:20:24.918Z,79.30
2018-07-05T23:26:04.929Z,78.70
2018-07-05T23:28:51.837Z,79.60
2018-07-05T23:31:38.706Z,79.30
2018-07-05T23:34:25.728Z,79.70
2018-07-05T23:37:12.754Z,78.50
2018-07-05T23:39:59.752Z,78.80
2018-07-05T23:48:20.361Z,77.80
2018-07-05T23:51:07.293Z,77.40
2018-07-05T23:53:53.993Z,77.70
2018-07-05T23:56:40.911Z,77.20
2018-07-05T23:59:28.054Z,77.10
